sensor_id;sensor_type;location;lat;lon;timestamp;P1;durP1;ratioP1;P2;durP2;ratioP2
22531;SDS011;11432;46.924;7.114;2023-12-20T00:01:02;6.50;;;4.10;;
22531;SDS011;11432;46.924;7.114;2023-12-20T00:03:27;6.25;;;4.00;;
22531;SDS011;11432;46.924;7.114;2023-12-20T00:05:53;6.10;;;4.07;;
22531;SDS011;11432;46.924;7.114;2023-12-20T00:08:18;6.53;;;4.30;;
22531;SDS011;11432;46.924;7.114;2023-12-20T00:10:44;8.30;;;4.38;;
22531;SDS011;11432;46.924;7.114;2023-12-20T00:13:10;6.53;;;4.20;;
22531;SDS011;11432;46.924;7.114;2023-12-20T00:15:36;7.03;;;4.10;;
22531;SDS011;11432;46.924;7.114;2023-12-20T00:18:01;7.38;;;4.82;;
22531;SDS011;11432;46.924;7.114;2023-12-20T00:20:28;7.63;;;4.13;;
22531;SDS011;11432;46.924;7.114;2023-12-20T00:22:55;6.30;;;4.35;;
22531;SDS011;11432;46.924;7.114;2023-12-20T00:25:22;6.93;;;3.95;;
22531;SDS011;11432;46.924;7.114;2023-12-20T00:27:48;6.47;;;4.00;;
22531;SDS011;11432;46.924;7.114;2023-12-20T00:30:14;5.53;;;3.72;;
22531;SDS011;11432;46.924;7.114;2023-12-20T00:32:39;4.93;;;3.60;;
22531;SDS011;11432;46.924;7.114;2023-12-20T00:35:11;6.70;;;3.67;;
22531;SDS011;11432;46.924;7.114;2023-12-20T00:37:37;5.20;;;3.30;;
22531;SDS011;11432;46.924;7.114;2023-12-20T00:40:03;6.63;;;3.80;;
22531;SDS011;11432;46.924;7.114;2023-12-20T00:42:28;5.13;;;3.63;;
22531;SDS011;11432;46.924;7.114;2023-12-20T00:44:54;8.05;;;3.83;;
22531;SDS011;11432;46.924;7.114;2023-12-20T00:47:20;5.60;;;3.88;;
22531;SDS011;11432;46.924;7.114;2023-12-20T00:49:45;5.45;;;3.30;;
22531;SDS011;11432;46.924;7.114;2023-12-20T00:52:11;5.38;;;3.03;;
22531;SDS011;11432;46.924;7.114;2023-12-20T00:54:36;5.35;;;3.28;;
22531;SDS011;11432;46.924;7.114;2023-12-20T00:57:02;6.07;;;4.05;;
22531;SDS011;11432;46.924;7.114;2023-12-20T00:59:28;5.40;;;3.63;;
22531;SDS011;11432;46.924;7.114;2023-12-20T01:01:53;4.72;;;3.30;;
22531;SDS011;11432;46.924;7.114;2023-12-20T01:04:19;5.00;;;3.58;;
22531;SDS011;11432;46.924;7.114;2023-12-20T01:06:44;7.45;;;3.75;;
22531;SDS011;11432;46.924;7.114;2023-12-20T01:09:10;4.88;;;3.30;;
22531;SDS011;11432;46.924;7.114;2023-12-20T01:11:36;7.28;;;3.83;;
22531;SDS011;11432;46.924;7.114;2023-12-20T01:14:01;6.10;;;3.45;;
22531;SDS011;11432;46.924;7.114;2023-12-20T01:16:27;6.30;;;3.65;;
22531;SDS011;11432;46.924;7.114;2023-12-20T01:18:52;4.93;;;3.28;;
22531;SDS011;11432;46.924;7.114;2023-12-20T01:21:18;6.68;;;3.63;;
22531;SDS011;11432;46.924;7.114;2023-12-20T01:23:43;5.53;;;3.47;;
22531;SDS011;11432;46.924;7.114;2023-12-20T01:26:09;5.38;;;3.50;;
22531;SDS011;11432;46.924;7.114;2023-12-20T01:28:35;5.65;;;3.45;;
22531;SDS011;11432;46.924;7.114;2023-12-20T01:31:00;5.97;;;3.80;;
22531;SDS011;11432;46.924;7.114;2023-12-20T01:33:26;4.95;;;3.30;;
22531;SDS011;11432;46.924;7.114;2023-12-20T01:35:51;4.47;;;3.03;;
22531;SDS011;11432;46.924;7.114;2023-12-20T01:38:17;6.90;;;4.05;;
22531;SDS011;11432;46.924;7.114;2023-12-20T01:40:45;6.00;;;3.42;;
22531;SDS011;11432;46.924;7.114;2023-12-20T01:43:11;5.53;;;3.70;;
22531;SDS011;11432;46.924;7.114;2023-12-20T01:45:37;5.55;;;3.60;;
22531;SDS011;11432;46.924;7.114;2023-12-20T01:48:03;5.55;;;3.65;;
22531;SDS011;11432;46.924;7.114;2023-12-20T01:50:30;5.18;;;3.33;;
22531;SDS011;11432;46.924;7.114;2023-12-20T01:52:57;5.35;;;3.63;;
22531;SDS011;11432;46.924;7.114;2023-12-20T01:55:25;6.68;;;3.55;;
22531;SDS011;11432;46.924;7.114;2023-12-20T01:57:52;5.70;;;3.92;;
22531;SDS011;11432;46.924;7.114;2023-12-20T02:00:18;4.20;;;3.40;;
22531;SDS011;11432;46.924;7.114;2023-12-20T02:02:48;6.32;;;3.38;;
22531;SDS011;11432;46.924;7.114;2023-12-20T02:05:15;5.35;;;3.60;;
22531;SDS011;11432;46.924;7.114;2023-12-20T02:07:42;5.80;;;3.55;;
22531;SDS011;11432;46.924;7.114;2023-12-20T02:10:07;5.78;;;3.72;;
22531;SDS011;11432;46.924;7.114;2023-12-20T02:12:33;5.18;;;3.65;;
22531;SDS011;11432;46.924;7.114;2023-12-20T02:14:59;6.10;;;3.55;;
22531;SDS011;11432;46.924;7.114;2023-12-20T02:17:25;8.45;;;3.67;;
22531;SDS011;11432;46.924;7.114;2023-12-20T02:19:52;4.80;;;3.15;;
22531;SDS011;11432;46.924;7.114;2023-12-20T02:22:18;7.35;;;3.55;;
22531;SDS011;11432;46.924;7.114;2023-12-20T02:24:43;6.57;;;3.50;;
22531;SDS011;11432;46.924;7.114;2023-12-20T02:27:09;6.28;;;3.40;;
22531;SDS011;11432;46.924;7.114;2023-12-20T02:29:35;5.18;;;3.22;;
22531;SDS011;11432;46.924;7.114;2023-12-20T02:32:01;5.78;;;3.25;;
22531;SDS011;11432;46.924;7.114;2023-12-20T02:34:27;4.95;;;3.08;;
22531;SDS011;11432;46.924;7.114;2023-12-20T02:36:53;4.30;;;2.80;;
22531;SDS011;11432;46.924;7.114;2023-12-20T02:39:19;5.03;;;2.65;;
22531;SDS011;11432;46.924;7.114;2023-12-20T02:41:45;4.47;;;2.58;;
22531;SDS011;11432;46.924;7.114;2023-12-20T02:44:11;4.70;;;2.70;;
22531;SDS011;11432;46.924;7.114;2023-12-20T02:46:37;3.95;;;2.40;;
22531;SDS011;11432;46.924;7.114;2023-12-20T02:49:03;5.13;;;2.95;;
22531;SDS011;11432;46.924;7.114;2023-12-20T02:51:28;4.93;;;2.95;;
22531;SDS011;11432;46.924;7.114;2023-12-20T02:53:54;4.90;;;3.00;;
22531;SDS011;11432;46.924;7.114;2023-12-20T02:56:19;3.75;;;2.42;;
22531;SDS011;11432;46.924;7.114;2023-12-20T02:58:45;4.57;;;2.97;;
22531;SDS011;11432;46.924;7.114;2023-12-20T03:01:10;3.67;;;2.40;;
22531;SDS011;11432;46.924;7.114;2023-12-20T03:03:36;4.95;;;2.75;;
22531;SDS011;11432;46.924;7.114;2023-12-20T03:06:01;4.38;;;2.70;;
22531;SDS011;11432;46.924;7.114;2023-12-20T03:08:27;4.13;;;2.53;;
22531;SDS011;11432;46.924;7.114;2023-12-20T03:10:53;4.80;;;2.85;;
22531;SDS011;11432;46.924;7.114;2023-12-20T03:13:18;4.95;;;3.10;;
22531;SDS011;11432;46.924;7.114;2023-12-20T03:15:45;4.78;;;2.80;;
22531;SDS011;11432;46.924;7.114;2023-12-20T03:18:11;5.47;;;3.20;;
22531;SDS011;11432;46.924;7.114;2023-12-20T03:20:36;5.00;;;2.88;;
22531;SDS011;11432;46.924;7.114;2023-12-20T03:23:02;4.30;;;2.85;;
22531;SDS011;11432;46.924;7.114;2023-12-20T03:25:28;4.72;;;3.03;;
22531;SDS011;11432;46.924;7.114;2023-12-20T03:27:54;5.45;;;3.30;;
22531;SDS011;11432;46.924;7.114;2023-12-20T03:30:19;5.10;;;3.30;;
22531;SDS011;11432;46.924;7.114;2023-12-20T03:32:45;4.68;;;3.10;;
22531;SDS011;11432;46.924;7.114;2023-12-20T03:35:11;6.30;;;3.15;;
22531;SDS011;11432;46.924;7.114;2023-12-20T03:37:37;5.22;;;3.03;;
22531;SDS011;11432;46.924;7.114;2023-12-20T03:40:02;6.03;;;3.20;;
22531;SDS011;11432;46.924;7.114;2023-12-20T03:42:28;5.20;;;2.80;;
22531;SDS011;11432;46.924;7.114;2023-12-20T03:44:54;3.67;;;2.47;;
22531;SDS011;11432;46.924;7.114;2023-12-20T03:47:20;11.57;;;5.53;;
22531;SDS011;11432;46.924;7.114;2023-12-20T03:49:45;6.85;;;3.30;;
22531;SDS011;11432;46.924;7.114;2023-12-20T03:52:11;5.05;;;3.33;;
22531;SDS011;11432;46.924;7.114;2023-12-20T03:54:37;5.53;;;3.05;;
22531;SDS011;11432;46.924;7.114;2023-12-20T03:57:03;4.18;;;2.88;;
22531;SDS011;11432;46.924;7.114;2023-12-20T03:59:29;5.47;;;3.50;;
22531;SDS011;11432;46.924;7.114;2023-12-20T04:01:59;6.53;;;3.40;;
22531;SDS011;11432;46.924;7.114;2023-12-20T04:04:25;8.85;;;3.60;;
22531;SDS011;11432;46.924;7.114;2023-12-20T04:06:50;6.07;;;3.30;;
22531;SDS011;11432;46.924;7.114;2023-12-20T04:09:16;6.75;;;3.55;;
22531;SDS011;11432;46.924;7.114;2023-12-20T04:11:41;5.57;;;3.17;;
22531;SDS011;11432;46.924;7.114;2023-12-20T04:14:07;5.30;;;3.50;;
22531;SDS011;11432;46.924;7.114;2023-12-20T04:16:32;7.25;;;3.47;;
22531;SDS011;11432;46.924;7.114;2023-12-20T04:18:58;5.65;;;3.83;;
22531;SDS011;11432;46.924;7.114;2023-12-20T04:21:24;4.50;;;3.03;;
22531;SDS011;11432;46.924;7.114;2023-12-20T04:23:49;9.27;;;4.13;;
22531;SDS011;11432;46.924;7.114;2023-12-20T04:26:15;9.90;;;4.10;;
22531;SDS011;11432;46.924;7.114;2023-12-20T04:28:40;8.13;;;4.38;;
22531;SDS011;11432;46.924;7.114;2023-12-20T04:31:06;8.55;;;4.43;;
22531;SDS011;11432;46.924;7.114;2023-12-20T04:33:31;7.65;;;4.57;;
22531;SDS011;11432;46.924;7.114;2023-12-20T04:35:57;10.68;;;4.70;;
22531;SDS011;11432;46.924;7.114;2023-12-20T04:38:23;6.07;;;3.97;;
22531;SDS011;11432;46.924;7.114;2023-12-20T04:40:49;8.38;;;4.35;;
22531;SDS011;11432;46.924;7.114;2023-12-20T04:43:14;6.95;;;3.90;;
22531;SDS011;11432;46.924;7.114;2023-12-20T04:45:40;7.40;;;4.28;;
22531;SDS011;11432;46.924;7.114;2023-12-20T04:48:05;6.80;;;4.32;;
22531;SDS011;11432;46.924;7.114;2023-12-20T04:50:31;7.45;;;3.88;;
22531;SDS011;11432;46.924;7.114;2023-12-20T04:52:58;8.13;;;4.00;;
22531;SDS011;11432;46.924;7.114;2023-12-20T04:55:23;6.00;;;3.55;;
22531;SDS011;11432;46.924;7.114;2023-12-20T04:57:49;5.22;;;3.30;;
22531;SDS011;11432;46.924;7.114;2023-12-20T05:00:14;5.65;;;3.45;;
22531;SDS011;11432;46.924;7.114;2023-12-20T05:02:40;7.00;;;3.20;;
22531;SDS011;11432;46.924;7.114;2023-12-20T05:05:06;7.50;;;3.97;;
22531;SDS011;11432;46.924;7.114;2023-12-20T05:07:32;6.68;;;4.03;;
22531;SDS011;11432;46.924;7.114;2023-12-20T05:09:58;5.18;;;3.40;;
22531;SDS011;11432;46.924;7.114;2023-12-20T05:12:24;5.63;;;3.30;;
22531;SDS011;11432;46.924;7.114;2023-12-20T05:14:50;5.88;;;3.00;;
22531;SDS011;11432;46.924;7.114;2023-12-20T05:17:19;6.03;;;3.33;;
22531;SDS011;11432;46.924;7.114;2023-12-20T05:19:45;5.35;;;3.28;;
22531;SDS011;11432;46.924;7.114;2023-12-20T05:22:11;4.40;;;3.00;;
22531;SDS011;11432;46.924;7.114;2023-12-20T05:24:36;5.03;;;2.83;;
22531;SDS011;11432;46.924;7.114;2023-12-20T05:27:02;3.75;;;2.97;;
22531;SDS011;11432;46.924;7.114;2023-12-20T05:29:28;5.00;;;3.00;;
22531;SDS011;11432;46.924;7.114;2023-12-20T05:31:54;4.88;;;2.67;;
22531;SDS011;11432;46.924;7.114;2023-12-20T05:34:19;4.60;;;2.78;;
22531;SDS011;11432;46.924;7.114;2023-12-20T05:36:45;4.03;;;2.80;;
22531;SDS011;11432;46.924;7.114;2023-12-20T05:39:11;5.38;;;3.08;;
22531;SDS011;11432;46.924;7.114;2023-12-20T05:41:36;5.85;;;3.13;;
22531;SDS011;11432;46.924;7.114;2023-12-20T05:44:02;6.18;;;2.92;;
22531;SDS011;11432;46.924;7.114;2023-12-20T05:46:27;5.97;;;3.40;;
22531;SDS011;11432;46.924;7.114;2023-12-20T05:48:53;4.70;;;3.08;;
22531;SDS011;11432;46.924;7.114;2023-12-20T05:51:19;4.07;;;2.83;;
22531;SDS011;11432;46.924;7.114;2023-12-20T05:53:44;4.88;;;2.92;;
22531;SDS011;11432;46.924;7.114;2023-12-20T05:56:10;5.25;;;2.63;;
22531;SDS011;11432;46.924;7.114;2023-12-20T05:58:36;5.82;;;3.40;;
22531;SDS011;11432;46.924;7.114;2023-12-20T06:01:04;4.60;;;3.10;;
22531;SDS011;11432;46.924;7.114;2023-12-20T06:03:29;4.03;;;2.72;;
22531;SDS011;11432;46.924;7.114;2023-12-20T06:05:55;4.38;;;2.95;;
22531;SDS011;11432;46.924;7.114;2023-12-20T06:08:21;5.03;;;2.75;;
22531;SDS011;11432;46.924;7.114;2023-12-20T06:10:46;5.18;;;3.08;;
22531;SDS011;11432;46.924;7.114;2023-12-20T06:13:12;3.95;;;2.67;;
22531;SDS011;11432;46.924;7.114;2023-12-20T06:15:38;5.20;;;2.80;;
22531;SDS011;11432;46.924;7.114;2023-12-20T06:18:05;4.53;;;2.67;;
22531;SDS011;11432;46.924;7.114;2023-12-20T06:20:31;3.95;;;2.72;;
22531;SDS011;11432;46.924;7.114;2023-12-20T06:22:57;4.47;;;2.63;;
22531;SDS011;11432;46.924;7.114;2023-12-20T06:25:22;5.30;;;2.88;;
22531;SDS011;11432;46.924;7.114;2023-12-20T06:27:48;5.20;;;3.28;;
22531;SDS011;11432;46.924;7.114;2023-12-20T06:30:15;4.72;;;2.50;;
22531;SDS011;11432;46.924;7.114;2023-12-20T06:32:41;4.95;;;3.17;;
22531;SDS011;11432;46.924;7.114;2023-12-20T06:35:07;3.53;;;2.60;;
22531;SDS011;11432;46.924;7.114;2023-12-20T06:37:34;6.05;;;2.92;;
22531;SDS011;11432;46.924;7.114;2023-12-20T06:39:59;4.70;;;2.70;;
22531;SDS011;11432;46.924;7.114;2023-12-20T06:42:25;4.38;;;2.70;;
22531;SDS011;11432;46.924;7.114;2023-12-20T06:44:51;4.30;;;2.45;;
22531;SDS011;11432;46.924;7.114;2023-12-20T06:47:48;5.65;;;3.13;;
22531;SDS011;11432;46.924;7.114;2023-12-20T06:50:14;5.90;;;3.20;;
22531;SDS011;11432;46.924;7.114;2023-12-20T06:52:40;5.18;;;3.10;;
22531;SDS011;11432;46.924;7.114;2023-12-20T06:55:05;5.20;;;2.90;;
22531;SDS011;11432;46.924;7.114;2023-12-20T06:57:31;6.03;;;3.15;;
22531;SDS011;11432;46.924;7.114;2023-12-20T06:59:56;5.43;;;2.95;;
22531;SDS011;11432;46.924;7.114;2023-12-20T07:02:22;5.47;;;2.80;;
22531;SDS011;11432;46.924;7.114;2023-12-20T07:04:48;6.70;;;2.97;;
22531;SDS011;11432;46.924;7.114;2023-12-20T07:07:14;5.07;;;2.60;;
22531;SDS011;11432;46.924;7.114;2023-12-20T07:09:39;4.50;;;2.65;;
22531;SDS011;11432;46.924;7.114;2023-12-20T07:12:07;4.70;;;2.40;;
22531;SDS011;11432;46.924;7.114;2023-12-20T07:14:33;5.47;;;2.67;;
22531;SDS011;11432;46.924;7.114;2023-12-20T07:16:59;3.60;;;2.83;;
22531;SDS011;11432;46.924;7.114;2023-12-20T07:19:24;5.78;;;2.72;;
22531;SDS011;11432;46.924;7.114;2023-12-20T07:21:50;4.28;;;2.63;;
22531;SDS011;11432;46.924;7.114;2023-12-20T07:24:15;4.57;;;2.75;;
22531;SDS011;11432;46.924;7.114;2023-12-20T07:26:41;4.22;;;2.70;;
22531;SDS011;11432;46.924;7.114;2023-12-20T07:29:06;4.75;;;2.95;;
22531;SDS011;11432;46.924;7.114;2023-12-20T07:31:32;5.63;;;2.95;;
22531;SDS011;11432;46.924;7.114;2023-12-20T07:33:58;4.78;;;2.60;;
22531;SDS011;11432;46.924;7.114;2023-12-20T07:36:23;6.47;;;3.60;;
22531;SDS011;11432;46.924;7.114;2023-12-20T07:38:49;4.43;;;3.17;;
22531;SDS011;11432;46.924;7.114;2023-12-20T07:41:15;5.05;;;3.00;;
22531;SDS011;11432;46.924;7.114;2023-12-20T07:43:46;5.40;;;3.28;;
22531;SDS011;11432;46.924;7.114;2023-12-20T07:46:11;5.35;;;3.08;;
22531;SDS011;11432;46.924;7.114;2023-12-20T07:48:37;7.82;;;3.83;;
22531;SDS011;11432;46.924;7.114;2023-12-20T07:51:06;5.00;;;3.22;;
22531;SDS011;11432;46.924;7.114;2023-12-20T07:53:33;6.18;;;3.60;;
22531;SDS011;11432;46.924;7.114;2023-12-20T07:55:59;7.43;;;3.60;;
22531;SDS011;11432;46.924;7.114;2023-12-20T07:58:24;6.72;;;4.20;;
22531;SDS011;11432;46.924;7.114;2023-12-20T08:00:50;6.68;;;3.83;;
22531;SDS011;11432;46.924;7.114;2023-12-20T08:03:16;5.10;;;3.35;;
22531;SDS011;11432;46.924;7.114;2023-12-20T08:05:41;6.05;;;3.60;;
22531;SDS011;11432;46.924;7.114;2023-12-20T08:08:07;5.18;;;3.35;;
22531;SDS011;11432;46.924;7.114;2023-12-20T08:10:33;5.45;;;3.60;;
22531;SDS011;11432;46.924;7.114;2023-12-20T08:12:58;5.45;;;3.38;;
22531;SDS011;11432;46.924;7.114;2023-12-20T08:15:24;8.68;;;3.55;;
22531;SDS011;11432;46.924;7.114;2023-12-20T08:17:50;7.35;;;3.80;;
22531;SDS011;11432;46.924;7.114;2023-12-20T08:20:18;5.33;;;3.37;;
22531;SDS011;11432;46.924;7.114;2023-12-20T08:22:44;6.85;;;3.75;;
22531;SDS011;11432;46.924;7.114;2023-12-20T08:25:09;4.97;;;3.42;;
22531;SDS011;11432;46.924;7.114;2023-12-20T08:27:39;5.75;;;3.40;;
22531;SDS011;11432;46.924;7.114;2023-12-20T08:30:05;7.20;;;3.10;;
22531;SDS011;11432;46.924;7.114;2023-12-20T08:32:32;5.70;;;3.20;;
22531;SDS011;11432;46.924;7.114;2023-12-20T08:34:58;6.65;;;3.13;;
22531;SDS011;11432;46.924;7.114;2023-12-20T08:37:24;4.47;;;2.67;;
22531;SDS011;11432;46.924;7.114;2023-12-20T08:39:49;5.40;;;2.60;;
22531;SDS011;11432;46.924;7.114;2023-12-20T08:42:15;4.70;;;2.80;;
22531;SDS011;11432;46.924;7.114;2023-12-20T08:44:40;5.15;;;2.60;;
22531;SDS011;11432;46.924;7.114;2023-12-20T08:47:06;6.68;;;3.00;;
22531;SDS011;11432;46.924;7.114;2023-12-20T08:49:32;5.15;;;3.15;;
22531;SDS011;11432;46.924;7.114;2023-12-20T08:51:57;4.93;;;3.00;;
22531;SDS011;11432;46.924;7.114;2023-12-20T08:54:23;5.43;;;2.90;;
22531;SDS011;11432;46.924;7.114;2023-12-20T08:56:49;4.57;;;2.80;;
22531;SDS011;11432;46.924;7.114;2023-12-20T08:59:15;4.80;;;3.10;;
22531;SDS011;11432;46.924;7.114;2023-12-20T09:01:40;4.38;;;2.85;;
22531;SDS011;11432;46.924;7.114;2023-12-20T09:04:06;5.55;;;2.90;;
22531;SDS011;11432;46.924;7.114;2023-12-20T09:06:31;4.95;;;3.05;;
22531;SDS011;11432;46.924;7.114;2023-12-20T09:08:57;6.85;;;3.28;;
22531;SDS011;11432;46.924;7.114;2023-12-20T09:11:23;6.30;;;3.13;;
22531;SDS011;11432;46.924;7.114;2023-12-20T09:13:48;5.70;;;3.10;;
22531;SDS011;11432;46.924;7.114;2023-12-20T09:16:14;4.68;;;2.70;;
22531;SDS011;11432;46.924;7.114;2023-12-20T09:18:40;4.18;;;2.40;;
22531;SDS011;11432;46.924;7.114;2023-12-20T09:21:06;3.22;;;2.30;;
22531;SDS011;11432;46.924;7.114;2023-12-20T09:23:32;4.38;;;2.40;;
22531;SDS011;11432;46.924;7.114;2023-12-20T09:25:58;3.55;;;2.55;;
22531;SDS011;11432;46.924;7.114;2023-12-20T09:28:23;3.08;;;2.17;;
22531;SDS011;11432;46.924;7.114;2023-12-20T09:30:49;3.05;;;2.10;;
22531;SDS011;11432;46.924;7.114;2023-12-20T09:33:15;3.90;;;1.92;;
22531;SDS011;11432;46.924;7.114;2023-12-20T09:35:41;4.95;;;2.38;;
22531;SDS011;11432;46.924;7.114;2023-12-20T09:38:07;3.67;;;2.17;;
22531;SDS011;11432;46.924;7.114;2023-12-20T09:40:33;3.00;;;1.55;;
22531;SDS011;11432;46.924;7.114;2023-12-20T09:43:04;2.42;;;1.60;;
22531;SDS011;11432;46.924;7.114;2023-12-20T09:45:36;3.25;;;1.33;;
22531;SDS011;11432;46.924;7.114;2023-12-20T09:48:02;2.00;;;1.17;;
22531;SDS011;11432;46.924;7.114;2023-12-20T09:50:30;2.63;;;1.45;;
22531;SDS011;11432;46.924;7.114;2023-12-20T09:52:57;2.83;;;1.20;;
22531;SDS011;11432;46.924;7.114;2023-12-20T09:55:24;1.98;;;1.23;;
22531;SDS011;11432;46.924;7.114;2023-12-20T09:57:51;1.67;;;1.23;;
22531;SDS011;11432;46.924;7.114;2023-12-20T10:00:17;2.15;;;1.50;;
22531;SDS011;11432;46.924;7.114;2023-12-20T10:03:01;2.70;;;1.42;;
22531;SDS011;11432;46.924;7.114;2023-12-20T10:05:33;2.28;;;1.20;;
22531;SDS011;11432;46.924;7.114;2023-12-20T10:07:59;2.40;;;1.10;;
22531;SDS011;11432;46.924;7.114;2023-12-20T10:10:26;1.95;;;1.10;;
22531;SDS011;11432;46.924;7.114;2023-12-20T10:13:05;1.17;;;0.80;;
22531;SDS011;11432;46.924;7.114;2023-12-20T10:15:35;2.05;;;0.82;;
22531;SDS011;11432;46.924;7.114;2023-12-20T10:18:02;2.28;;;1.17;;
22531;SDS011;11432;46.924;7.114;2023-12-20T10:20:29;1.25;;;0.80;;
22531;SDS011;11432;46.924;7.114;2023-12-20T10:22:56;4.00;;;1.00;;
22531;SDS011;11432;46.924;7.114;2023-12-20T10:25:25;3.75;;;1.30;;
22531;SDS011;11432;46.924;7.114;2023-12-20T10:30:36;2.63;;;1.20;;
22531;SDS011;11432;46.924;7.114;2023-12-20T10:33:01;2.10;;;1.05;;
22531;SDS011;11432;46.924;7.114;2023-12-20T10:35:27;7.57;;;1.38;;
22531;SDS011;11432;46.924;7.114;2023-12-20T10:37:55;4.45;;;1.20;;
22531;SDS011;11432;46.924;7.114;2023-12-20T10:40:23;2.28;;;1.17;;
22531;SDS011;11432;46.924;7.114;2023-12-20T10:42:52;2.47;;;1.30;;
22531;SDS011;11432;46.924;7.114;2023-12-20T10:45:19;4.05;;;1.67;;
22531;SDS011;11432;46.924;7.114;2023-12-20T10:47:46;3.78;;;2.25;;
22531;SDS011;11432;46.924;7.114;2023-12-20T10:50:11;2.50;;;1.65;;
22531;SDS011;11432;46.924;7.114;2023-12-20T10:52:37;3.00;;;1.60;;
22531;SDS011;11432;46.924;7.114;2023-12-20T10:55:03;3.53;;;1.30;;
22531;SDS011;11432;46.924;7.114;2023-12-20T10:57:30;6.28;;;1.75;;
22531;SDS011;11432;46.924;7.114;2023-12-20T10:59:56;1.98;;;0.90;;
22531;SDS011;11432;46.924;7.114;2023-12-20T11:02:33;2.40;;;0.93;;
22531;SDS011;11432;46.924;7.114;2023-12-20T11:07:47;2.25;;;0.68;;
22531;SDS011;11432;46.924;7.114;2023-12-20T11:10:25;1.92;;;0.52;;
22531;SDS011;11432;46.924;7.114;2023-12-20T11:12:57;0.85;;;0.40;;
22531;SDS011;11432;46.924;7.114;2023-12-20T11:15:36;1.17;;;0.30;;
22531;SDS011;11432;46.924;7.114;2023-12-20T11:18:02;1.00;;;0.38;;
22531;SDS011;11432;46.924;7.114;2023-12-20T11:20:37;0.40;;;0.38;;
22531;SDS011;11432;46.924;7.114;2023-12-20T11:23:07;0.20;;;0.20;;
22531;SDS011;11432;46.924;7.114;2023-12-20T11:25:52;0.20;;;0.20;;
22531;SDS011;11432;46.924;7.114;2023-12-20T11:28:22;0.40;;;0.30;;
22531;SDS011;11432;46.924;7.114;2023-12-20T11:30:50;0.73;;;0.30;;
22531;SDS011;11432;46.924;7.114;2023-12-20T11:33:17;0.77;;;0.22;;
22531;SDS011;11432;46.924;7.114;2023-12-20T11:35:47;0.50;;;0.40;;
22531;SDS011;11432;46.924;7.114;2023-12-20T11:38:13;0.63;;;0.40;;
22531;SDS011;11432;46.924;7.114;2023-12-20T11:40:39;1.17;;;0.40;;
22531;SDS011;11432;46.924;7.114;2023-12-20T11:43:07;1.25;;;0.63;;
22531;SDS011;11432;46.924;7.114;2023-12-20T11:45:32;1.23;;;0.50;;
22531;SDS011;11432;46.924;7.114;2023-12-20T11:47:59;0.63;;;0.45;;
22531;SDS011;11432;46.924;7.114;2023-12-20T11:50:29;2.08;;;0.70;;
22531;SDS011;11432;46.924;7.114;2023-12-20T11:52:56;1.08;;;0.60;;
22531;SDS011;11432;46.924;7.114;2023-12-20T11:55:22;1.38;;;0.70;;
22531;SDS011;11432;46.924;7.114;2023-12-20T11:57:49;1.08;;;0.70;;
22531;SDS011;11432;46.924;7.114;2023-12-20T12:00:15;1.77;;;0.68;;
22531;SDS011;11432;46.924;7.114;2023-12-20T12:02:41;0.93;;;0.52;;
22531;SDS011;11432;46.924;7.114;2023-12-20T12:05:07;0.70;;;0.52;;
22531;SDS011;11432;46.924;7.114;2023-12-20T12:07:35;0.93;;;0.70;;
22531;SDS011;11432;46.924;7.114;2023-12-20T12:10:01;1.02;;;0.60;;
22531;SDS011;11432;46.924;7.114;2023-12-20T12:12:28;1.75;;;0.80;;
22531;SDS011;11432;46.924;7.114;2023-12-20T12:14:55;0.50;;;0.30;;
22531;SDS011;11432;46.924;7.114;2023-12-20T12:17:22;0.63;;;0.32;;
22531;SDS011;11432;46.924;7.114;2023-12-20T12:19:48;0.63;;;0.22;;
22531;SDS011;11432;46.924;7.114;2023-12-20T12:22:14;0.47;;;0.40;;
22531;SDS011;11432;46.924;7.114;2023-12-20T12:24:44;1.92;;;0.43;;
22531;SDS011;11432;46.924;7.114;2023-12-20T12:27:13;0.52;;;0.40;;
22531;SDS011;11432;46.924;7.114;2023-12-20T12:29:39;0.30;;;0.30;;
22531;SDS011;11432;46.924;7.114;2023-12-20T12:32:08;1.65;;;0.45;;
22531;SDS011;11432;46.924;7.114;2023-12-20T12:34:35;1.58;;;0.73;;
22531;SDS011;11432;46.924;7.114;2023-12-20T12:37:01;0.75;;;0.45;;
22531;SDS011;11432;46.924;7.114;2023-12-20T12:39:27;0.70;;;0.60;;
22531;SDS011;11432;46.924;7.114;2023-12-20T12:41:55;0.52;;;0.45;;
22531;SDS011;11432;46.924;7.114;2023-12-20T12:44:21;0.82;;;0.47;;
22531;SDS011;11432;46.924;7.114;2023-12-20T12:46:48;0.85;;;0.38;;
22531;SDS011;11432;46.924;7.114;2023-12-20T12:49:19;1.00;;;0.60;;
22531;SDS011;11432;46.924;7.114;2023-12-20T12:51:46;1.58;;;0.70;;
22531;SDS011;11432;46.924;7.114;2023-12-20T12:54:12;1.33;;;0.70;;
22531;SDS011;11432;46.924;7.114;2023-12-20T12:56:38;1.00;;;0.63;;
22531;SDS011;11432;46.924;7.114;2023-12-20T12:59:04;1.08;;;0.60;;
22531;SDS011;11432;46.924;7.114;2023-12-20T13:01:30;1.35;;;0.45;;
22531;SDS011;11432;46.924;7.114;2023-12-20T13:03:56;1.15;;;0.70;;
22531;SDS011;11432;46.924;7.114;2023-12-20T13:06:22;0.90;;;0.73;;
22531;SDS011;11432;46.924;7.114;2023-12-20T13:08:48;0.95;;;0.60;;
22531;SDS011;11432;46.924;7.114;2023-12-20T13:11:14;1.88;;;0.60;;
22531;SDS011;11432;46.924;7.114;2023-12-20T13:13:40;2.67;;;0.80;;
22531;SDS011;11432;46.924;7.114;2023-12-20T13:16:05;1.23;;;0.65;;
22531;SDS011;11432;46.924;7.114;2023-12-20T13:18:31;0.90;;;0.60;;
22531;SDS011;11432;46.924;7.114;2023-12-20T13:20:57;1.13;;;0.60;;
22531;SDS011;11432;46.924;7.114;2023-12-20T13:23:22;1.92;;;0.68;;
22531;SDS011;11432;46.924;7.114;2023-12-20T13:25:48;1.55;;;0.60;;
22531;SDS011;11432;46.924;7.114;2023-12-20T13:28:14;1.80;;;0.80;;
22531;SDS011;11432;46.924;7.114;2023-12-20T13:30:39;1.27;;;0.60;;
22531;SDS011;11432;46.924;7.114;2023-12-20T13:33:05;1.15;;;0.68;;
22531;SDS011;11432;46.924;7.114;2023-12-20T13:35:31;1.83;;;0.47;;
22531;SDS011;11432;46.924;7.114;2023-12-20T13:37:58;0.98;;;0.57;;
22531;SDS011;11432;46.924;7.114;2023-12-20T13:40:24;0.50;;;0.40;;
22531;SDS011;11432;46.924;7.114;2023-12-20T13:42:49;2.28;;;0.75;;
22531;SDS011;11432;46.924;7.114;2023-12-20T13:45:15;1.83;;;0.80;;
22531;SDS011;11432;46.924;7.114;2023-12-20T13:47:41;0.60;;;0.60;;
22531;SDS011;11432;46.924;7.114;2023-12-20T13:50:07;1.75;;;0.77;;
22531;SDS011;11432;46.924;7.114;2023-12-20T13:52:32;2.63;;;0.60;;
22531;SDS011;11432;46.924;7.114;2023-12-20T13:54:58;1.23;;;0.70;;
22531;SDS011;11432;46.924;7.114;2023-12-20T13:57:23;0.70;;;0.50;;
22531;SDS011;11432;46.924;7.114;2023-12-20T13:59:49;1.27;;;0.52;;
22531;SDS011;11432;46.924;7.114;2023-12-20T14:02:14;1.00;;;0.50;;
22531;SDS011;11432;46.924;7.114;2023-12-20T14:04:41;0.77;;;0.50;;
22531;SDS011;11432;46.924;7.114;2023-12-20T14:07:07;2.30;;;0.60;;
22531;SDS011;11432;46.924;7.114;2023-12-20T14:09:33;3.63;;;0.60;;
22531;SDS011;11432;46.924;7.114;2023-12-20T14:11:59;2.40;;;0.70;;
22531;SDS011;11432;46.924;7.114;2023-12-20T14:14:24;1.35;;;0.70;;
22531;SDS011;11432;46.924;7.114;2023-12-20T14:16:50;1.40;;;0.60;;
22531;SDS011;11432;46.924;7.114;2023-12-20T14:19:16;2.55;;;0.77;;
22531;SDS011;11432;46.924;7.114;2023-12-20T14:21:41;1.95;;;0.70;;
22531;SDS011;11432;46.924;7.114;2023-12-20T14:24:07;0.60;;;0.50;;
22531;SDS011;11432;46.924;7.114;2023-12-20T14:26:33;1.10;;;0.60;;
22531;SDS011;11432;46.924;7.114;2023-12-20T14:28:59;1.55;;;0.82;;
22531;SDS011;11432;46.924;7.114;2023-12-20T14:31:25;1.55;;;0.60;;
22531;SDS011;11432;46.924;7.114;2023-12-20T14:33:50;1.00;;;0.50;;
22531;SDS011;11432;46.924;7.114;2023-12-20T14:36:18;1.77;;;0.70;;
22531;SDS011;11432;46.924;7.114;2023-12-20T14:38:45;0.63;;;0.47;;
22531;SDS011;11432;46.924;7.114;2023-12-20T14:41:12;2.38;;;0.70;;
22531;SDS011;11432;46.924;7.114;2023-12-20T14:43:37;1.30;;;0.55;;
22531;SDS011;11432;46.924;7.114;2023-12-20T14:46:03;3.28;;;0.52;;
22531;SDS011;11432;46.924;7.114;2023-12-20T14:48:30;1.17;;;0.60;;